LiveATC.Net - Listen to live air traffic control over the Internet!


ICAO: WMSA  IATA: SZB   Airport: Sultan Abdul Aziz Shah Airport
City: Subang
Country: Malaysia   Continent: Asia
WMSA METAR Weather: WMSA 190000Z 00000KT 2500 HZ FEW018 SCT140 BKN270 26/25 Q1012
WMSA Flight Activity (FlightAware)

WMSA Del/Gnd/Twr/App
Feed Status: UP   Listeners: 1
Listen in your browser - HTML5 player (in browser, HTML5)
Click here to listen with your own player (launches your MP3 player)
WMSA Del/Gnd/Twr/App Audio Archives
FacilityFrequency
Lumpur Approach119.450
Lumpur Director124.200
Subang Clearance Delivery126.000
Subang Ground121.900
Subang Tower118.200

NOTICE

Unauthorized use prohibited. See LiveATC.net Terms of Service


Airport/ARTCC Code
Frequency Search
(e.g., 124.400, 128.75)
Site-wide search
 


Browse LiveATC Feeds
Top 50 LiveATC Feeds
LiveATC Feed Map
Bad Weather Areas

LiveATC FAQ
Offer LiveATC feed
Contact LiveATC.net
Press Inquiries

LiveATC on iPhone
LiveATC on Android

Windows Phone
Windows 8/10

LiveATC Mobile
(Mobile browser)

ATC Audio Archives
Interesting Recordings

LiveATC Forums


Home Page
About LiveATC.net
Make a Donation
Terms of Use
Privacy Policy

Canadian Air Freqs

AIRMETs/SIGMETs

FAA Airport Status
Nat'l Airspace Status
Arrival Demand Charts


Server Software By:
Icecast.org
Liquidsoap